createdAt,value
2017-08-19T00:01:04.415Z,99.90
2017-08-19T00:03:32.680Z,99.90
2017-08-19T00:06:00.947Z,99.90
2017-08-19T00:08:28.426Z,99.90
2017-08-19T00:10:55.943Z,99.90
2017-08-19T00:13:23.445Z,99.90
2017-08-19T00:15:51.700Z,99.90
2017-08-19T00:18:19.201Z,99.90
2017-08-19T00:20:46.736Z,99.90
2017-08-19T00:23:14.291Z,99.90
2017-08-19T00:25:42.569Z,99.90
2017-08-19T00:28:10.849Z,99.90
2017-08-19T00:30:38.331Z,99.90
2017-08-19T00:33:05.827Z,99.90
2017-08-19T00:35:33.345Z,99.90
2017-08-19T00:38:00.898Z,99.90
2017-08-19T00:40:28.442Z,99.90
2017-08-19T00:42:56.700Z,99.90
2017-08-19T00:45:24.261Z,99.90
2017-08-19T00:47:57.564Z,99.90
2017-08-19T00:50:25.125Z,99.90
2017-08-19T00:52:53.371Z,99.90
2017-08-19T00:55:20.959Z,99.90
2017-08-19T00:57:48.531Z,99.90
2017-08-19T01:00:16.079Z,99.90
2017-08-19T01:02:43.581Z,99.90
2017-08-19T01:05:11.109Z,99.90
2017-08-19T01:07:39.352Z,99.90
2017-08-19T01:10:06.951Z,99.90
2017-08-19T01:12:34.495Z,99.90
2017-08-19T01:15:02.730Z,99.90
2017-08-19T01:17:30.352Z,99.90
2017-08-19T01:19:57.874Z,99.90
2017-08-19T01:22:25.455Z,99.90
2017-08-19T01:24:53.698Z,99.90
2017-08-19T01:27:21.204Z,99.90
2017-08-19T01:29:48.748Z,99.90
2017-08-19T01:32:17.750Z,99.90
2017-08-19T01:34:45.293Z,99.90
2017-08-19T01:37:12.858Z,99.90
2017-08-19T01:39:40.410Z,99.90
2017-08-19T01:42:08.676Z,99.90
2017-08-19T01:44:36.318Z,99.90
2017-08-19T01:47:03.831Z,99.90
2017-08-19T01:49:31.373Z,99.90
2017-08-19T01:52:00.582Z,99.90
2017-08-19T01:54:28.134Z,99.90
2017-08-19T01:56:55.674Z,99.90
2017-08-19T01:59:23.251Z,99.90
2017-08-19T02:01:51.521Z,99.90
2017-08-19T02:04:19.785Z,99.90
2017-08-19T02:06:47.355Z,99.90
2017-08-19T02:09:14.828Z,99.90
2017-08-19T02:11:42.316Z,99.90
2017-08-19T02:14:11.060Z,99.90
2017-08-19T02:16:39.331Z,99.90
2017-08-19T02:19:06.831Z,99.90
2017-08-19T02:21:34.352Z,99.90
2017-08-19T02:24:02.659Z,99.90
2017-08-19T02:26:30.198Z,99.90
2017-08-19T02:28:58.479Z,99.90
2017-08-19T02:31:26.028Z,99.90
2017-08-19T02:33:53.605Z,99.90
2017-08-19T02:36:21.148Z,99.90
2017-08-19T02:38:49.397Z,99.90
2017-08-19T02:41:16.879Z,99.90
2017-08-19T02:43:44.381Z,99.90
2017-08-19T02:46:11.899Z,99.90
2017-08-19T02:48:40.289Z,99.90
2017-08-19T02:51:07.845Z,99.90
2017-08-19T02:53:35.414Z,99.90
2017-08-19T02:56:02.895Z,99.90
2017-08-19T02:58:30.417Z,99.90
2017-08-19T03:00:57.889Z,99.90
2017-08-19T03:03:25.435Z,99.90
2017-08-19T03:05:53.693Z,99.90
2017-08-19T03:08:21.267Z,99.90
2017-08-19T03:10:49.539Z,99.90
2017-08-19T03:13:17.833Z,99.90
2017-08-19T03:15:45.375Z,99.90
2017-08-19T03:18:12.860Z,99.90
2017-08-19T03:20:40.378Z,99.90
2017-08-19T03:23:07.875Z,99.90
2017-08-19T03:25:35.383Z,99.90
2017-08-19T03:28:02.868Z,99.90
2017-08-19T03:30:30.425Z,99.90
2017-08-19T03:32:58.703Z,99.90
2017-08-19T03:35:26.950Z,99.90
2017-08-19T03:37:54.441Z,99.90
2017-08-19T03:40:22.714Z,99.90
2017-08-19T03:42:50.251Z,99.90
2017-08-19T03:45:17.834Z,99.90
2017-08-19T03:47:46.114Z,99.90
2017-08-19T03:50:14.487Z,99.90
2017-08-19T03:52:42.048Z,99.90
2017-08-19T03:55:09.594Z,99.90
2017-08-19T03:57:37.157Z,99.90
2017-08-19T04:00:04.659Z,99.90
2017-08-19T04:02:32.200Z,99.90
2017-08-19T04:04:59.754Z,99.90
2017-08-19T04:07:28.026Z,99.90
2017-08-19T04:09:56.289Z,99.90
2017-08-19T04:12:23.852Z,99.90
2017-08-19T04:14:51.398Z,99.90
2017-08-19T04:17:18.892Z,99.90
2017-08-19T04:19:46.435Z,99.90
2017-08-19T04:22:13.998Z,99.90
2017-08-19T04:24:42.247Z,99.90
2017-08-19T04:27:09.835Z,99.90
2017-08-19T04:29:38.108Z,99.90
2017-08-19T04:32:06.357Z,99.90
2017-08-19T04:34:33.843Z,99.90
2017-08-19T04:37:02.115Z,99.90
2017-08-19T04:39:30.385Z,99.90
2017-08-19T04:41:57.951Z,99.90
2017-08-19T04:44:25.496Z,99.90
2017-08-19T04:46:52.991Z,99.90
2017-08-19T04:49:20.524Z,99.90
2017-08-19T04:51:48.774Z,99.90
2017-08-19T04:54:16.294Z,99.90
2017-08-19T04:56:43.813Z,99.90
2017-08-19T04:59:12.107Z,99.90
2017-08-19T05:01:40.356Z,99.90
2017-08-19T05:04:07.932Z,99.90
2017-08-19T05:06:35.498Z,99.90
2017-08-19T05:09:02.985Z,99.90
2017-08-19T05:11:30.614Z,99.90
2017-08-19T05:13:58.115Z,99.90
2017-08-19T05:16:25.629Z,99.90
2017-08-19T05:18:53.911Z,99.90
2017-08-19T05:21:22.146Z,99.90
2017-08-19T05:23:49.627Z,99.90
2017-08-19T05:26:17.208Z,99.90
2017-08-19T05:28:44.695Z,99.90
2017-08-19T05:31:12.166Z,99.90
2017-08-19T05:33:39.678Z,99.90
2017-08-19T05:36:07.229Z,99.90
2017-08-19T05:38:34.791Z,99.90
2017-08-19T05:41:03.031Z,99.90
2017-08-19T05:43:37.843Z,99.90
2017-08-19T05:46:05.325Z,99.90
2017-08-19T05:48:32.913Z,99.90
2017-08-19T05:51:01.198Z,99.90
2017-08-19T05:53:29.458Z,99.90
2017-08-19T05:55:57.744Z,99.90
2017-08-19T05:58:25.302Z,99.90
2017-08-19T06:00:52.869Z,99.90
2017-08-19T06:03:21.142Z,99.90
2017-08-19T06:05:50.303Z,99.90
2017-08-19T06:08:17.909Z,99.90
2017-08-19T06:10:46.160Z,99.90
2017-08-19T06:13:13.739Z,99.90
2017-08-19T06:15:41.290Z,99.90
2017-08-19T06:18:08.869Z,99.90
2017-08-19T06:20:36.407Z,99.90
2017-08-19T06:23:10.729Z,99.90
2017-08-19T06:25:38.288Z,99.90
2017-08-19T06:28:05.858Z,99.90
2017-08-19T06:30:33.413Z,99.90
2017-08-19T06:33:01.680Z,99.90
2017-08-19T06:35:30.014Z,99.90
2017-08-19T06:37:57.508Z,99.90
2017-08-19T06:40:25.081Z,99.90
2017-08-19T06:42:52.569Z,99.90
2017-08-19T06:45:20.110Z,99.90
2017-08-19T06:47:48.382Z,99.90
2017-08-19T06:50:15.891Z,99.90
2017-08-19T06:52:43.387Z,99.90
2017-08-19T06:55:11.640Z,99.90
2017-08-19T06:57:39.120Z,99.90
2017-08-19T07:00:07.400Z,99.90
2017-08-19T07:02:35.676Z,99.90
2017-08-19T07:05:10.417Z,99.90
2017-08-19T07:07:37.924Z,99.90
2017-08-19T07:10:05.416Z,99.90
2017-08-19T07:12:33.694Z,99.90
2017-08-19T07:15:01.231Z,99.90
2017-08-19T07:17:28.724Z,99.90
2017-08-19T07:19:56.210Z,99.90
2017-08-19T07:22:23.728Z,99.90
2017-08-19T07:24:51.283Z,99.90
2017-08-19T07:27:19.575Z,99.90
2017-08-19T07:29:47.842Z,99.90
2017-08-19T07:32:15.333Z,99.90
2017-08-19T07:34:42.870Z,99.90
2017-08-19T07:37:11.121Z,99.90
2017-08-19T07:39:38.704Z,99.90
2017-08-19T07:42:06.204Z,99.90
2017-08-19T07:44:33.707Z,99.90
2017-08-19T07:47:01.281Z,99.90
2017-08-19T07:49:29.544Z,99.90
2017-08-19T07:51:57.803Z,99.90
2017-08-19T07:54:25.388Z,99.90
2017-08-19T07:56:53.052Z,99.90
2017-08-19T07:59:21.313Z,99.90
2017-08-19T08:01:48.881Z,99.90
2017-08-19T08:04:16.439Z,99.90
2017-08-19T08:06:43.997Z,99.90
2017-08-19T08:09:11.491Z,99.90
2017-08-19T08:11:39.029Z,99.90
2017-08-19T08:14:06.586Z,99.90
2017-08-19T08:16:34.132Z,99.90
2017-08-19T08:19:02.393Z,99.90
2017-08-19T08:21:29.891Z,99.90
2017-08-19T08:23:57.436Z,99.90
2017-08-19T08:26:25.698Z,99.90
2017-08-19T08:28:53.206Z,99.90
2017-08-19T08:31:20.687Z,99.90
2017-08-19T08:33:48.287Z,99.90
2017-08-19T08:36:15.764Z,99.90
2017-08-19T08:38:43.299Z,99.90
2017-08-19T08:41:10.864Z,99.90
2017-08-19T08:43:38.427Z,99.90
2017-08-19T08:46:06.707Z,99.90
2017-08-19T08:48:35.005Z,99.90
2017-08-19T08:51:02.543Z,99.90
2017-08-19T08:56:33.407Z,99.90
2017-08-19T08:59:00.921Z,99.90
2017-08-19T09:01:28.410Z,99.90
2017-08-19T09:03:55.965Z,99.90
2017-08-19T09:06:23.496Z,99.90
2017-08-19T09:08:51.022Z,99.90
2017-08-19T09:11:18.534Z,99.30
2017-08-19T09:13:46.815Z,99.90
2017-08-19T09:16:15.107Z,99.90
2017-08-19T09:18:42.616Z,99.80
2017-08-19T09:21:10.139Z,98.90
2017-08-19T09:23:37.689Z,98.10
2017-08-19T09:26:05.203Z,96.60
2017-08-19T09:28:32.711Z,98.40
2017-08-19T09:31:00.203Z,98.30
2017-08-19T09:33:27.701Z,97.80
2017-08-19T09:35:55.981Z,96.90
2017-08-19T09:38:24.247Z,96.70
2017-08-19T09:40:52.518Z,96.70
2017-08-19T09:43:20.781Z,97.60
2017-08-19T09:45:48.296Z,97.60
2017-08-19T09:48:15.791Z,97.50
2017-08-19T09:50:43.325Z,96.60
2017-08-19T09:53:10.814Z,96.20
2017-08-19T09:55:38.304Z,97.20
2017-08-19T09:58:06.568Z,95.60
2017-08-19T10:00:34.823Z,95.70
2017-08-19T10:03:03.158Z,95.70
2017-08-19T10:05:30.646Z,95.80
2017-08-19T10:07:58.158Z,95.80
2017-08-19T10:10:37.642Z,96.00
2017-08-19T10:13:05.130Z,95.90
2017-08-19T10:15:32.608Z,95.50
2017-08-19T10:18:00.116Z,95.90
2017-08-19T10:20:27.610Z,95.60
2017-08-19T10:22:55.877Z,94.90
2017-08-19T10:25:23.366Z,94.50
2017-08-19T10:27:50.865Z,94.00
2017-08-19T10:30:18.370Z,93.60
2017-08-19T10:32:46.633Z,92.00
2017-08-19T10:35:14.889Z,92.70
2017-08-19T10:37:42.387Z,92.50
2017-08-19T10:40:09.896Z,93.10
2017-08-19T10:42:37.412Z,92.50
2017-08-19T10:45:04.910Z,92.20
2017-08-19T10:47:32.430Z,92.80
2017-08-19T10:52:55.921Z,92.40
2017-08-19T10:55:23.415Z,92.60
2017-08-19T10:57:50.907Z,90.80
2017-08-19T11:00:18.411Z,92.70
2017-08-19T11:02:45.891Z,93.10
2017-08-19T11:05:13.413Z,91.90
2017-08-19T11:07:40.916Z,91.70
2017-08-19T11:10:08.398Z,90.90
2017-08-19T11:12:36.647Z,91.40
2017-08-19T11:15:04.147Z,91.40
2017-08-19T11:17:32.393Z,90.70
2017-08-19T11:19:59.910Z,90.60
2017-08-19T11:22:27.401Z,90.70
2017-08-19T11:24:54.906Z,88.40
2017-08-19T11:27:22.400Z,90.80
2017-08-19T11:29:49.900Z,90.00
2017-08-19T11:32:18.171Z,88.90
2017-08-19T11:34:46.445Z,88.10
2017-08-19T11:37:13.939Z,87.30
2017-08-19T11:39:42.898Z,87.90
2017-08-19T11:42:10.381Z,88.40
2017-08-19T11:44:37.891Z,86.00
2017-08-19T11:47:05.394Z,87.90
2017-08-19T11:49:32.881Z,88.80
2017-08-19T11:52:00.390Z,89.10
2017-08-19T11:54:28.661Z,86.60
2017-08-19T11:56:56.185Z,86.60
2017-08-19T11:59:24.390Z,89.30
2017-08-19T12:01:51.914Z,89.30
2017-08-19T12:04:19.406Z,89.70
2017-08-19T12:06:46.903Z,89.90
2017-08-19T12:09:14.391Z,89.60
2017-08-19T12:11:41.894Z,89.20
2017-08-19T12:14:09.383Z,88.60
2017-08-19T12:16:36.888Z,88.60
2017-08-19T12:19:04.385Z,87.50
2017-08-19T12:21:32.641Z,85.60
2017-08-19T12:24:00.922Z,84.20
2017-08-19T12:26:29.236Z,85.20
2017-08-19T12:28:56.712Z,85.20
2017-08-19T12:31:24.225Z,86.20
2017-08-19T12:33:52.478Z,86.60
2017-08-19T12:36:19.973Z,86.50
2017-08-19T12:38:47.468Z,88.10
2017-08-19T12:41:14.975Z,88.80
2017-08-19T12:43:44.162Z,89.00
2017-08-19T12:46:11.641Z,86.50
2017-08-19T12:48:39.134Z,86.00
2017-08-19T12:51:06.635Z,85.10
2017-08-19T12:53:34.178Z,84.60
2017-08-19T12:56:01.680Z,87.20
2017-08-19T12:58:29.181Z,88.70
2017-08-19T13:01:13.975Z,90.00
2017-08-19T13:03:41.475Z,90.40
2017-08-19T13:06:08.987Z,90.70
2017-08-19T13:08:36.486Z,91.20
2017-08-19T13:11:03.964Z,91.40
2017-08-19T13:13:31.478Z,91.80
2017-08-19T13:15:58.972Z,91.70
2017-08-19T13:18:26.472Z,91.10
2017-08-19T13:20:53.958Z,91.50
2017-08-19T13:23:21.461Z,91.20
2017-08-19T13:25:48.957Z,90.40
2017-08-19T13:28:17.246Z,89.90
2017-08-19T13:30:44.720Z,89.80
2017-08-19T13:33:12.202Z,89.00
2017-08-19T13:35:39.687Z,89.40
2017-08-19T13:38:07.181Z,88.40
2017-08-19T13:40:34.678Z,89.70
2017-08-19T13:43:02.176Z,87.70
2017-08-19T13:45:30.463Z,87.00
2017-08-19T13:47:58.722Z,88.70
2017-08-19T13:50:26.215Z,88.70
2017-08-19T13:52:53.707Z,89.20
2017-08-19T13:55:21.206Z,89.90
2017-08-19T13:57:48.781Z,90.10
2017-08-19T14:00:16.281Z,90.20
2017-08-19T14:02:43.766Z,89.40
2017-08-19T14:05:11.268Z,89.80
2017-08-19T14:07:38.743Z,90.10
2017-08-19T14:10:10.024Z,89.90
2017-08-19T14:12:40.758Z,89.70
2017-08-19T14:15:08.351Z,89.50
2017-08-19T14:17:36.598Z,89.90
2017-08-19T14:20:04.087Z,89.90
2017-08-19T14:22:32.361Z,90.00
2017-08-19T14:24:59.851Z,90.00
2017-08-19T14:27:28.275Z,89.80
2017-08-19T14:29:55.750Z,89.60
2017-08-19T14:32:23.243Z,90.00
2017-08-19T14:34:50.740Z,89.00
2017-08-19T14:37:18.263Z,89.20
2017-08-19T14:39:45.752Z,90.30
2017-08-19T14:42:13.244Z,89.30
2017-08-19T14:44:41.514Z,89.70
2017-08-19T14:47:09.035Z,89.70
2017-08-19T14:49:36.535Z,89.50
2017-08-19T14:52:04.029Z,90.00
2017-08-19T14:54:31.529Z,90.00
2017-08-19T14:56:59.044Z,89.50
2017-08-19T14:59:26.527Z,88.00
2017-08-19T15:01:54.070Z,88.00
2017-08-19T15:04:21.575Z,85.50
2017-08-19T15:06:49.846Z,88.40
2017-08-19T15:09:17.343Z,88.40
2017-08-19T15:11:44.834Z,87.40
2017-08-19T15:14:12.351Z,87.60
2017-08-19T15:16:39.855Z,87.70
2017-08-19T15:19:07.375Z,85.60
2017-08-19T15:21:34.870Z,86.20
2017-08-19T15:24:02.364Z,85.90
2017-08-19T15:26:29.853Z,87.00
2017-08-19T15:28:57.343Z,87.10
2017-08-19T15:31:24.823Z,86.30
2017-08-19T15:34:06.904Z,87.10
2017-08-19T15:36:41.218Z,86.30
2017-08-19T15:39:08.744Z,87.70
2017-08-19T15:41:36.238Z,87.70
2017-08-19T15:44:03.751Z,86.70
2017-08-19T15:46:31.232Z,86.60
2017-08-19T15:48:58.732Z,85.70
2017-08-19T15:51:26.220Z,85.10
2017-08-19T15:53:53.723Z,82.30
2017-08-19T15:56:21.198Z,81.30
2017-08-19T15:58:48.701Z,81.40
2017-08-19T16:01:16.189Z,81.60
2017-08-19T16:03:43.683Z,83.10
2017-08-19T16:06:11.346Z,82.70
2017-08-19T16:08:38.856Z,82.60
2017-08-19T16:11:06.336Z,83.60
2017-08-19T16:13:33.818Z,81.90
2017-08-19T16:16:01.311Z,80.30
2017-08-19T16:18:28.796Z,79.80
2017-08-19T16:20:56.286Z,81.00
2017-08-19T16:23:23.766Z,81.20
2017-08-19T16:25:51.263Z,81.60
2017-08-19T16:28:18.744Z,82.10
2017-08-19T16:30:46.227Z,82.00
2017-08-19T16:33:13.707Z,82.50
2017-08-19T16:35:41.202Z,83.20
2017-08-19T16:38:08.678Z,82.00
2017-08-19T16:40:36.174Z,79.90
2017-08-19T16:43:04.431Z,75.80
2017-08-19T16:45:31.922Z,75.80
2017-08-19T16:47:59.406Z,72.50
2017-08-19T16:50:26.893Z,69.80
2017-08-19T16:52:54.374Z,66.40
2017-08-19T16:55:22.643Z,63.50
2017-08-19T16:57:50.130Z,63.40
2017-08-19T17:00:17.634Z,61.90
2017-08-19T17:02:45.119Z,62.10
2017-08-19T17:05:12.611Z,60.80
2017-08-19T17:07:40.105Z,60.30
2017-08-19T17:10:07.603Z,59.20
2017-08-19T17:12:35.866Z,58.80
2017-08-19T17:15:03.339Z,58.80
2017-08-19T17:17:31.601Z,58.10
2017-08-19T17:19:59.079Z,58.00
2017-08-19T17:22:27.341Z,61.60
2017-08-19T17:24:54.859Z,61.50
2017-08-19T17:27:22.392Z,66.60
2017-08-19T17:29:49.874Z,68.10
2017-08-19T17:32:17.363Z,69.90
2017-08-19T17:34:44.851Z,71.90
2017-08-19T17:37:12.334Z,73.30
2017-08-19T17:39:39.820Z,74.60
2017-08-19T17:42:07.319Z,75.40
2017-08-19T17:44:35.589Z,77.40
2017-08-19T17:47:03.127Z,77.40
2017-08-19T17:49:30.616Z,76.50
2017-08-19T17:51:58.100Z,76.30
2017-08-19T17:54:25.597Z,77.40
2017-08-19T17:56:53.074Z,78.00
2017-08-19T17:59:25.970Z,78.60
2017-08-19T18:01:54.223Z,78.50
2017-08-19T18:04:21.798Z,78.50
2017-08-19T18:06:50.052Z,79.70
2017-08-19T18:09:17.544Z,79.30
2017-08-19T18:11:45.786Z,80.70
2017-08-19T18:14:13.282Z,80.70
2017-08-19T18:16:40.762Z,80.90
2017-08-19T18:19:08.267Z,81.30
2017-08-19T18:21:35.758Z,81.50
2017-08-19T18:24:04.057Z,83.30
2017-08-19T18:26:31.555Z,83.20
2017-08-19T18:28:59.055Z,83.20
2017-08-19T18:31:26.545Z,83.70
2017-08-19T18:33:54.049Z,84.00
2017-08-19T18:36:21.534Z,84.70
2017-08-19T18:38:49.035Z,85.90
2017-08-19T18:41:17.369Z,86.60
2017-08-19T18:43:44.875Z,86.20
2017-08-19T18:46:12.355Z,86.60
2017-08-19T18:48:40.632Z,87.90
2017-08-19T18:51:08.879Z,87.90
2017-08-19T18:53:36.365Z,87.30
2017-08-19T18:56:04.639Z,88.90
2017-08-19T18:58:32.121Z,88.40
2017-08-19T19:00:59.672Z,87.60
2017-08-19T19:03:27.351Z,88.80
2017-08-19T19:05:54.847Z,88.60
2017-08-19T19:08:22.328Z,88.40
2017-08-19T19:10:49.827Z,88.10
2017-08-19T19:13:17.336Z,90.80
2017-08-19T19:15:44.844Z,91.10
2017-08-19T19:18:12.328Z,91.10
2017-08-19T19:20:39.827Z,91.40
2017-08-19T19:23:07.316Z,91.60
2017-08-19T19:25:34.816Z,91.70
2017-08-19T19:28:02.356Z,91.40
2017-08-19T19:30:30.871Z,91.60
2017-08-19T19:32:58.351Z,92.40
2017-08-19T19:35:25.863Z,92.60
2017-08-19T19:37:53.363Z,92.60
2017-08-19T19:40:21.650Z,93.00
2017-08-19T19:42:49.125Z,92.60
2017-08-19T19:45:16.618Z,92.80
2017-08-19T19:47:44.111Z,93.10
2017-08-19T19:50:11.601Z,93.40
2017-08-19T19:52:39.103Z,93.60
2017-08-19T19:55:06.592Z,93.70
2017-08-19T19:57:34.090Z,93.70
2017-08-19T20:00:01.590Z,94.00
2017-08-19T20:02:29.095Z,94.10
2017-08-19T20:04:56.578Z,94.30
2017-08-19T20:07:24.087Z,94.40
2017-08-19T20:09:51.587Z,94.40
2017-08-19T20:12:19.091Z,94.40
2017-08-19T20:14:46.695Z,94.60
2017-08-19T20:17:14.251Z,94.70
2017-08-19T20:19:41.733Z,94.80
2017-08-19T20:22:09.247Z,94.90
2017-08-19T20:24:36.742Z,95.00
2017-08-19T20:27:04.254Z,94.90
2017-08-19T20:29:31.756Z,94.90
2017-08-19T20:31:59.239Z,94.90
2017-08-19T20:34:26.756Z,95.10
2017-08-19T20:36:54.242Z,95.30
2017-08-19T20:39:21.730Z,95.60
2017-08-19T20:41:49.234Z,95.80
2017-08-19T20:44:16.743Z,95.70
2017-08-19T20:46:44.225Z,95.80
2017-08-19T20:49:12.485Z,96.20
2017-08-19T20:51:40.730Z,96.30
2017-08-19T20:54:08.590Z,96.20
2017-08-19T20:56:36.076Z,96.30
2017-08-19T20:59:03.662Z,96.30
2017-08-19T21:01:31.933Z,96.40
2017-08-19T21:03:59.431Z,96.40
2017-08-19T21:06:26.904Z,96.30
2017-08-19T21:08:54.403Z,96.00
2017-08-19T21:11:22.672Z,95.90
2017-08-19T21:13:50.172Z,95.80
2017-08-19T21:16:17.655Z,96.60
2017-08-19T21:18:45.159Z,96.00
2017-08-19T21:21:13.447Z,96.30
2017-08-19T21:23:40.946Z,96.30
2017-08-19T21:26:08.468Z,96.50
2017-08-19T21:28:35.957Z,96.70
2017-08-19T21:31:03.441Z,96.80
2017-08-19T21:33:30.926Z,96.90
2017-08-19T21:35:59.203Z,97.10
2017-08-19T21:38:27.461Z,96.90
2017-08-19T21:40:54.971Z,96.90
2017-08-19T21:43:22.448Z,97.00
2017-08-19T21:45:49.941Z,97.20
2017-08-19T21:48:17.418Z,97.30
2017-08-19T21:50:44.924Z,97.40
2017-08-19T21:53:12.406Z,97.40
2017-08-19T21:55:39.920Z,97.40
2017-08-19T21:58:07.403Z,97.40
2017-08-19T22:00:34.914Z,97.10
2017-08-19T22:03:02.404Z,97.20
2017-08-19T22:05:29.895Z,97.40
2017-08-19T22:07:57.374Z,97.60
2017-08-19T22:10:25.631Z,97.70
2017-08-19T22:12:54.225Z,97.60
2017-08-19T22:15:21.734Z,97.60
2017-08-19T22:17:49.223Z,97.60
2017-08-19T22:20:16.735Z,98.00
2017-08-19T22:22:44.211Z,98.20
2017-08-19T22:25:11.690Z,98.10
2017-08-19T22:27:39.177Z,98.10
2017-08-19T22:30:06.659Z,98.20
2017-08-19T22:32:34.207Z,98.30
2017-08-19T22:35:01.679Z,98.40
2017-08-19T22:37:29.169Z,98.50
2017-08-19T22:39:56.641Z,98.40
2017-08-19T22:42:24.134Z,98.10
2017-08-19T22:44:52.396Z,98.40
2017-08-19T22:47:19.887Z,98.40
2017-08-19T22:49:48.335Z,98.20
2017-08-19T22:52:15.836Z,98.10
2017-08-19T22:54:43.338Z,98.20
2017-08-19T22:57:10.872Z,98.20
2017-08-19T22:59:38.387Z,98.40
2017-08-19T23:02:05.869Z,98.50
2017-08-19T23:04:33.361Z,98.60
2017-08-19T23:07:00.834Z,98.60
2017-08-19T23:09:28.323Z,98.60
2017-08-19T23:11:55.844Z,98.40
2017-08-19T23:14:23.318Z,98.40
2017-08-19T23:16:51.570Z,98.60
2017-08-19T23:19:19.097Z,98.60
2017-08-19T23:21:46.582Z,98.70
2017-08-19T23:24:14.067Z,98.50
2017-08-19T23:26:42.316Z,98.90
2017-08-19T23:29:09.806Z,98.70
2017-08-19T23:31:37.358Z,99.10
2017-08-19T23:34:04.859Z,99.40
2017-08-19T23:36:32.337Z,99.40
2017-08-19T23:38:59.842Z,98.90
2017-08-19T23:41:27.348Z,98.80
2017-08-19T23:43:54.835Z,99.00
2017-08-19T23:46:22.368Z,99.00
2017-08-19T23:48:49.859Z,98.90
2017-08-19T23:51:17.361Z,98.90
2017-08-19T23:53:44.833Z,99.30
2017-08-19T23:56:15.706Z,99.30
2017-08-19T23:58:43.174Z,99.30
